sensor_id;sensor_type;location;lat;lon;timestamp;P1;durP1;ratioP1;P2;durP2;ratioP2
7933;SDS011;4012;48.896;9.192;2023-12-28T00:00:26;2.57;;;2.00;;
7933;SDS011;4012;48.896;9.192;2023-12-28T00:02:51;3.07;;;2.07;;
7933;SDS011;4012;48.896;9.192;2023-12-28T00:05:17;2.90;;;2.10;;
7933;SDS011;4012;48.896;9.192;2023-12-28T00:07:43;3.13;;;1.93;;
7933;SDS011;4012;48.896;9.192;2023-12-28T00:10:08;2.60;;;2.00;;
7933;SDS011;4012;48.896;9.192;2023-12-28T00:12:34;4.23;;;1.90;;
7933;SDS011;4012;48.896;9.192;2023-12-28T00:15:00;3.00;;;1.90;;
7933;SDS011;4012;48.896;9.192;2023-12-28T00:17:25;3.20;;;1.70;;
7933;SDS011;4012;48.896;9.192;2023-12-28T00:19:51;2.50;;;1.70;;
7933;SDS011;4012;48.896;9.192;2023-12-28T00:22:17;2.23;;;1.83;;
7933;SDS011;4012;48.896;9.192;2023-12-28T00:24:42;2.43;;;1.47;;
7933;SDS011;4012;48.896;9.192;2023-12-28T00:27:08;2.80;;;1.90;;
7933;SDS011;4012;48.896;9.192;2023-12-28T00:29:33;2.57;;;1.70;;
7933;SDS011;4012;48.896;9.192;2023-12-28T00:32:03;2.27;;;1.70;;
7933;SDS011;4012;48.896;9.192;2023-12-28T00:34:32;2.03;;;1.33;;
7933;SDS011;4012;48.896;9.192;2023-12-28T00:36:57;1.97;;;1.70;;
7933;SDS011;4012;48.896;9.192;2023-12-28T00:39:23;2.00;;;1.47;;
7933;SDS011;4012;48.896;9.192;2023-12-28T00:41:48;4.17;;;2.00;;
7933;SDS011;4012;48.896;9.192;2023-12-28T00:44:14;1.93;;;1.70;;
7933;SDS011;4012;48.896;9.192;2023-12-28T00:46:40;2.30;;;1.60;;
7933;SDS011;4012;48.896;9.192;2023-12-28T00:49:05;2.03;;;1.80;;
7933;SDS011;4012;48.896;9.192;2023-12-28T00:51:31;3.10;;;1.67;;
7933;SDS011;4012;48.896;9.192;2023-12-28T00:53:57;1.97;;;1.60;;
7933;SDS011;4012;48.896;9.192;2023-12-28T00:56:22;1.80;;;1.70;;
7933;SDS011;4012;48.896;9.192;2023-12-28T00:58:48;2.30;;;1.70;;
7933;SDS011;4012;48.896;9.192;2023-12-28T01:01:13;4.80;;;1.73;;
7933;SDS011;4012;48.896;9.192;2023-12-28T01:03:39;1.70;;;1.30;;
7933;SDS011;4012;48.896;9.192;2023-12-28T01:06:05;2.57;;;1.87;;
7933;SDS011;4012;48.896;9.192;2023-12-28T01:08:33;2.20;;;2.00;;
7933;SDS011;4012;48.896;9.192;2023-12-28T01:10:59;1.60;;;1.50;;
7933;SDS011;4012;48.896;9.192;2023-12-28T01:13:25;2.10;;;1.40;;
7933;SDS011;4012;48.896;9.192;2023-12-28T01:15:52;3.63;;;1.50;;
7933;SDS011;4012;48.896;9.192;2023-12-28T01:18:17;1.70;;;1.50;;
7933;SDS011;4012;48.896;9.192;2023-12-28T01:20:43;2.20;;;1.63;;
7933;SDS011;4012;48.896;9.192;2023-12-28T01:23:09;2.97;;;1.63;;
7933;SDS011;4012;48.896;9.192;2023-12-28T01:25:35;3.17;;;1.90;;
7933;SDS011;4012;48.896;9.192;2023-12-28T01:28:00;2.57;;;1.70;;
7933;SDS011;4012;48.896;9.192;2023-12-28T01:30:26;2.20;;;1.50;;
7933;SDS011;4012;48.896;9.192;2023-12-28T01:32:51;2.13;;;1.67;;
7933;SDS011;4012;48.896;9.192;2023-12-28T01:35:17;1.73;;;1.50;;
7933;SDS011;4012;48.896;9.192;2023-12-28T01:37:43;2.10;;;1.80;;
7933;SDS011;4012;48.896;9.192;2023-12-28T01:40:09;1.63;;;1.50;;
7933;SDS011;4012;48.896;9.192;2023-12-28T01:42:34;2.77;;;1.47;;
7933;SDS011;4012;48.896;9.192;2023-12-28T01:45:00;2.43;;;1.70;;
7933;SDS011;4012;48.896;9.192;2023-12-28T01:47:26;4.93;;;1.80;;
7933;SDS011;4012;48.896;9.192;2023-12-28T01:49:52;2.77;;;1.80;;
7933;SDS011;4012;48.896;9.192;2023-12-28T01:52:19;5.73;;;1.70;;
7933;SDS011;4012;48.896;9.192;2023-12-28T01:54:45;2.00;;;1.60;;
7933;SDS011;4012;48.896;9.192;2023-12-28T01:57:10;2.07;;;1.87;;
7933;SDS011;4012;48.896;9.192;2023-12-28T01:59:38;2.20;;;1.70;;
7933;SDS011;4012;48.896;9.192;2023-12-28T02:02:05;4.03;;;1.70;;
7933;SDS011;4012;48.896;9.192;2023-12-28T02:04:31;2.07;;;1.53;;
7933;SDS011;4012;48.896;9.192;2023-12-28T02:06:57;2.73;;;1.90;;
7933;SDS011;4012;48.896;9.192;2023-12-28T02:09:25;2.53;;;1.70;;
7933;SDS011;4012;48.896;9.192;2023-12-28T02:11:50;5.73;;;1.90;;
7933;SDS011;4012;48.896;9.192;2023-12-28T02:14:17;1.93;;;1.60;;
7933;SDS011;4012;48.896;9.192;2023-12-28T02:17:03;1.60;;;1.50;;
7933;SDS011;4012;48.896;9.192;2023-12-28T02:19:40;1.90;;;1.60;;
7933;SDS011;4012;48.896;9.192;2023-12-28T02:22:07;1.90;;;1.60;;
7933;SDS011;4012;48.896;9.192;2023-12-28T02:24:50;2.37;;;1.60;;
7933;SDS011;4012;48.896;9.192;2023-12-28T02:27:35;2.90;;;1.50;;
7933;SDS011;4012;48.896;9.192;2023-12-28T02:30:03;1.60;;;1.47;;
7933;SDS011;4012;48.896;9.192;2023-12-28T02:38:13;1.90;;;1.37;;
7933;SDS011;4012;48.896;9.192;2023-12-28T02:40:41;2.03;;;1.47;;
7933;SDS011;4012;48.896;9.192;2023-12-28T02:43:09;2.40;;;1.63;;
7933;SDS011;4012;48.896;9.192;2023-12-28T02:45:36;2.73;;;1.90;;
7933;SDS011;4012;48.896;9.192;2023-12-28T02:48:03;2.00;;;1.60;;
7933;SDS011;4012;48.896;9.192;2023-12-28T02:50:29;1.80;;;1.67;;
7933;SDS011;4012;48.896;9.192;2023-12-28T02:52:55;1.60;;;1.50;;
7933;SDS011;4012;48.896;9.192;2023-12-28T02:55:21;1.80;;;1.53;;
7933;SDS011;4012;48.896;9.192;2023-12-28T02:57:50;2.80;;;1.50;;
7933;SDS011;4012;48.896;9.192;2023-12-28T03:00:24;1.83;;;1.43;;
7933;SDS011;4012;48.896;9.192;2023-12-28T03:02:50;2.23;;;1.20;;
7933;SDS011;4012;48.896;9.192;2023-12-28T03:05:15;2.77;;;1.37;;
7933;SDS011;4012;48.896;9.192;2023-12-28T03:07:41;2.40;;;1.60;;
7933;SDS011;4012;48.896;9.192;2023-12-28T03:10:07;3.90;;;1.70;;
7933;SDS011;4012;48.896;9.192;2023-12-28T03:12:33;2.90;;;1.60;;
7933;SDS011;4012;48.896;9.192;2023-12-28T03:14:59;3.07;;;1.40;;
7933;SDS011;4012;48.896;9.192;2023-12-28T03:17:25;1.87;;;1.47;;
7933;SDS011;4012;48.896;9.192;2023-12-28T03:19:50;1.73;;;1.40;;
7933;SDS011;4012;48.896;9.192;2023-12-28T03:22:16;3.00;;;1.40;;
7933;SDS011;4012;48.896;9.192;2023-12-28T03:24:42;2.07;;;1.53;;
7933;SDS011;4012;48.896;9.192;2023-12-28T03:27:08;3.10;;;1.87;;
7933;SDS011;4012;48.896;9.192;2023-12-28T03:29:33;1.73;;;1.40;;
7933;SDS011;4012;48.896;9.192;2023-12-28T03:32:02;2.47;;;1.60;;
7933;SDS011;4012;48.896;9.192;2023-12-28T03:34:27;2.43;;;1.70;;
7933;SDS011;4012;48.896;9.192;2023-12-28T03:36:55;1.23;;;1.10;;
7933;SDS011;4012;48.896;9.192;2023-12-28T03:39:20;4.00;;;1.50;;
7933;SDS011;4012;48.896;9.192;2023-12-28T03:41:49;2.43;;;1.37;;
7933;SDS011;4012;48.896;9.192;2023-12-28T03:44:15;5.03;;;1.90;;
7933;SDS011;4012;48.896;9.192;2023-12-28T03:46:40;2.30;;;1.53;;
7933;SDS011;4012;48.896;9.192;2023-12-28T03:49:06;1.80;;;1.50;;
7933;SDS011;4012;48.896;9.192;2023-12-28T03:51:31;3.30;;;1.57;;
7933;SDS011;4012;48.896;9.192;2023-12-28T03:53:57;1.30;;;1.20;;
7933;SDS011;4012;48.896;9.192;2023-12-28T03:56:23;1.50;;;1.20;;
7933;SDS011;4012;48.896;9.192;2023-12-28T03:58:50;2.27;;;1.50;;
7933;SDS011;4012;48.896;9.192;2023-12-28T04:01:17;1.57;;;1.43;;
7933;SDS011;4012;48.896;9.192;2023-12-28T04:03:44;3.73;;;2.13;;
7933;SDS011;4012;48.896;9.192;2023-12-28T04:06:10;1.97;;;1.53;;
7933;SDS011;4012;48.896;9.192;2023-12-28T04:08:36;4.00;;;1.30;;
7933;SDS011;4012;48.896;9.192;2023-12-28T04:11:01;2.17;;;1.50;;
7933;SDS011;4012;48.896;9.192;2023-12-28T04:13:27;1.80;;;1.23;;
7933;SDS011;4012;48.896;9.192;2023-12-28T04:15:52;1.20;;;1.10;;
7933;SDS011;4012;48.896;9.192;2023-12-28T04:18:18;1.87;;;1.50;;
7933;SDS011;4012;48.896;9.192;2023-12-28T04:20:43;2.13;;;1.60;;
7933;SDS011;4012;48.896;9.192;2023-12-28T04:23:12;1.97;;;1.60;;
7933;SDS011;4012;48.896;9.192;2023-12-28T04:25:38;3.83;;;1.33;;
7933;SDS011;4012;48.896;9.192;2023-12-28T04:28:04;1.67;;;1.40;;
7933;SDS011;4012;48.896;9.192;2023-12-28T04:30:29;1.77;;;1.50;;
7933;SDS011;4012;48.896;9.192;2023-12-28T04:32:55;2.30;;;1.50;;
7933;SDS011;4012;48.896;9.192;2023-12-28T04:35:20;2.97;;;1.60;;
7933;SDS011;4012;48.896;9.192;2023-12-28T04:37:46;3.13;;;1.93;;
7933;SDS011;4012;48.896;9.192;2023-12-28T04:40:12;4.43;;;1.87;;
7933;SDS011;4012;48.896;9.192;2023-12-28T04:42:42;2.50;;;1.57;;
7933;SDS011;4012;48.896;9.192;2023-12-28T04:45:10;2.23;;;1.67;;
7933;SDS011;4012;48.896;9.192;2023-12-28T04:47:36;5.77;;;1.50;;
7933;SDS011;4012;48.896;9.192;2023-12-28T04:50:03;2.43;;;1.40;;
7933;SDS011;4012;48.896;9.192;2023-12-28T04:52:29;2.77;;;1.50;;
7933;SDS011;4012;48.896;9.192;2023-12-28T04:54:55;1.67;;;1.27;;
7933;SDS011;4012;48.896;9.192;2023-12-28T04:57:24;1.70;;;1.60;;
7933;SDS011;4012;48.896;9.192;2023-12-28T04:59:50;2.00;;;1.37;;
7933;SDS011;4012;48.896;9.192;2023-12-28T05:02:16;2.53;;;1.60;;
7933;SDS011;4012;48.896;9.192;2023-12-28T05:04:42;1.53;;;1.40;;
7933;SDS011;4012;48.896;9.192;2023-12-28T05:07:08;1.90;;;1.37;;
7933;SDS011;4012;48.896;9.192;2023-12-28T05:09:33;1.57;;;1.47;;
7933;SDS011;4012;48.896;9.192;2023-12-28T05:11:59;2.77;;;1.50;;
7933;SDS011;4012;48.896;9.192;2023-12-28T05:14:24;2.23;;;1.77;;
7933;SDS011;4012;48.896;9.192;2023-12-28T05:16:50;2.23;;;1.40;;
7933;SDS011;4012;48.896;9.192;2023-12-28T05:19:16;1.77;;;1.50;;
7933;SDS011;4012;48.896;9.192;2023-12-28T05:21:41;1.57;;;1.47;;
7933;SDS011;4012;48.896;9.192;2023-12-28T05:24:07;2.87;;;1.50;;
7933;SDS011;4012;48.896;9.192;2023-12-28T05:26:33;1.50;;;1.40;;
7933;SDS011;4012;48.896;9.192;2023-12-28T05:29:02;1.63;;;1.43;;
7933;SDS011;4012;48.896;9.192;2023-12-28T05:31:28;2.23;;;1.50;;
7933;SDS011;4012;48.896;9.192;2023-12-28T05:33:53;1.60;;;1.50;;
7933;SDS011;4012;48.896;9.192;2023-12-28T05:36:19;2.27;;;1.50;;
7933;SDS011;4012;48.896;9.192;2023-12-28T05:38:44;1.70;;;1.40;;
7933;SDS011;4012;48.896;9.192;2023-12-28T05:41:10;1.70;;;1.60;;
7933;SDS011;4012;48.896;9.192;2023-12-28T05:43:36;2.40;;;1.40;;
7933;SDS011;4012;48.896;9.192;2023-12-28T05:46:02;2.73;;;1.47;;
7933;SDS011;4012;48.896;9.192;2023-12-28T05:48:28;3.67;;;1.50;;
7933;SDS011;4012;48.896;9.192;2023-12-28T05:50:54;3.47;;;1.67;;
7933;SDS011;4012;48.896;9.192;2023-12-28T05:53:19;5.40;;;1.50;;
7933;SDS011;4012;48.896;9.192;2023-12-28T05:55:45;2.97;;;1.73;;
7933;SDS011;4012;48.896;9.192;2023-12-28T05:58:10;2.23;;;1.57;;
7933;SDS011;4012;48.896;9.192;2023-12-28T06:00:36;3.17;;;1.50;;
7933;SDS011;4012;48.896;9.192;2023-12-28T06:03:03;2.23;;;1.50;;
7933;SDS011;4012;48.896;9.192;2023-12-28T06:05:29;2.27;;;1.70;;
7933;SDS011;4012;48.896;9.192;2023-12-28T06:07:55;2.57;;;1.60;;
7933;SDS011;4012;48.896;9.192;2023-12-28T06:10:23;2.70;;;1.60;;
7933;SDS011;4012;48.896;9.192;2023-12-28T06:12:52;4.47;;;1.70;;
7933;SDS011;4012;48.896;9.192;2023-12-28T06:15:17;5.10;;;1.40;;
7933;SDS011;4012;48.896;9.192;2023-12-28T06:17:43;1.77;;;1.40;;
7933;SDS011;4012;48.896;9.192;2023-12-28T06:20:11;3.43;;;1.73;;
7933;SDS011;4012;48.896;9.192;2023-12-28T06:22:36;3.50;;;1.83;;
7933;SDS011;4012;48.896;9.192;2023-12-28T06:25:03;4.73;;;2.10;;
7933;SDS011;4012;48.896;9.192;2023-12-28T06:27:29;4.60;;;1.80;;
7933;SDS011;4012;48.896;9.192;2023-12-28T06:29:58;2.97;;;1.50;;
7933;SDS011;4012;48.896;9.192;2023-12-28T06:32:23;3.77;;;1.73;;
7933;SDS011;4012;48.896;9.192;2023-12-28T06:34:49;2.70;;;1.50;;
7933;SDS011;4012;48.896;9.192;2023-12-28T06:37:15;2.70;;;1.50;;
7933;SDS011;4012;48.896;9.192;2023-12-28T06:39:40;2.00;;;1.70;;
7933;SDS011;4012;48.896;9.192;2023-12-28T06:42:06;2.33;;;1.80;;
7933;SDS011;4012;48.896;9.192;2023-12-28T06:44:32;4.30;;;1.50;;
7933;SDS011;4012;48.896;9.192;2023-12-28T06:46:58;2.40;;;1.70;;
7933;SDS011;4012;48.896;9.192;2023-12-28T06:49:24;2.87;;;1.93;;
7933;SDS011;4012;48.896;9.192;2023-12-28T06:51:50;2.87;;;1.60;;
7933;SDS011;4012;48.896;9.192;2023-12-28T06:54:16;4.40;;;1.97;;
7933;SDS011;4012;48.896;9.192;2023-12-28T06:56:42;2.53;;;1.47;;
7933;SDS011;4012;48.896;9.192;2023-12-28T06:59:08;2.93;;;1.70;;
7933;SDS011;4012;48.896;9.192;2023-12-28T07:01:40;2.57;;;1.90;;
7933;SDS011;4012;48.896;9.192;2023-12-28T07:04:06;3.73;;;2.07;;
7933;SDS011;4012;48.896;9.192;2023-12-28T07:06:32;4.20;;;2.07;;
7933;SDS011;4012;48.896;9.192;2023-12-28T07:08:57;2.67;;;2.10;;
7933;SDS011;4012;48.896;9.192;2023-12-28T07:11:23;4.47;;;2.27;;
7933;SDS011;4012;48.896;9.192;2023-12-28T07:13:49;4.83;;;2.00;;
7933;SDS011;4012;48.896;9.192;2023-12-28T07:16:14;3.90;;;2.23;;
7933;SDS011;4012;48.896;9.192;2023-12-28T07:18:40;2.30;;;2.00;;
7933;SDS011;4012;48.896;9.192;2023-12-28T07:21:06;3.97;;;2.20;;
7933;SDS011;4012;48.896;9.192;2023-12-28T07:23:34;3.23;;;2.30;;
7933;SDS011;4012;48.896;9.192;2023-12-28T07:26:00;5.23;;;2.77;;
7933;SDS011;4012;48.896;9.192;2023-12-28T07:28:26;2.27;;;2.00;;
7933;SDS011;4012;48.896;9.192;2023-12-28T07:30:53;3.20;;;2.50;;
7933;SDS011;4012;48.896;9.192;2023-12-28T07:33:18;3.27;;;2.23;;
7933;SDS011;4012;48.896;9.192;2023-12-28T07:35:44;4.17;;;2.50;;
7933;SDS011;4012;48.896;9.192;2023-12-28T07:38:10;2.90;;;2.23;;
7933;SDS011;4012;48.896;9.192;2023-12-28T07:40:35;4.33;;;2.40;;
7933;SDS011;4012;48.896;9.192;2023-12-28T07:43:01;4.27;;;2.30;;
7933;SDS011;4012;48.896;9.192;2023-12-28T07:45:26;2.73;;;2.20;;
7933;SDS011;4012;48.896;9.192;2023-12-28T07:47:52;3.10;;;2.40;;
7933;SDS011;4012;48.896;9.192;2023-12-28T07:50:18;3.63;;;2.37;;
7933;SDS011;4012;48.896;9.192;2023-12-28T07:52:44;3.37;;;2.53;;
7933;SDS011;4012;48.896;9.192;2023-12-28T07:55:11;4.27;;;2.20;;
7933;SDS011;4012;48.896;9.192;2023-12-28T07:57:37;4.17;;;2.77;;
7933;SDS011;4012;48.896;9.192;2023-12-28T08:00:03;4.00;;;2.40;;
7933;SDS011;4012;48.896;9.192;2023-12-28T08:02:30;3.57;;;2.50;;
7933;SDS011;4012;48.896;9.192;2023-12-28T08:04:56;5.63;;;2.23;;
7933;SDS011;4012;48.896;9.192;2023-12-28T08:07:21;3.83;;;2.20;;
7933;SDS011;4012;48.896;9.192;2023-12-28T08:09:47;3.47;;;2.10;;
7933;SDS011;4012;48.896;9.192;2023-12-28T08:12:12;2.80;;;2.07;;
7933;SDS011;4012;48.896;9.192;2023-12-28T08:14:38;2.47;;;2.17;;
7933;SDS011;4012;48.896;9.192;2023-12-28T08:17:04;3.07;;;1.97;;
7933;SDS011;4012;48.896;9.192;2023-12-28T08:19:29;3.77;;;1.93;;
7933;SDS011;4012;48.896;9.192;2023-12-28T08:21:55;3.33;;;2.10;;
7933;SDS011;4012;48.896;9.192;2023-12-28T08:24:21;2.63;;;2.20;;
7933;SDS011;4012;48.896;9.192;2023-12-28T08:26:46;3.83;;;1.90;;
7933;SDS011;4012;48.896;9.192;2023-12-28T08:29:12;3.63;;;2.63;;
7933;SDS011;4012;48.896;9.192;2023-12-28T08:31:38;5.83;;;2.70;;
7933;SDS011;4012;48.896;9.192;2023-12-28T08:34:03;4.87;;;2.30;;
7933;SDS011;4012;48.896;9.192;2023-12-28T08:36:29;3.67;;;2.10;;
7933;SDS011;4012;48.896;9.192;2023-12-28T08:38:54;3.30;;;2.20;;
7933;SDS011;4012;48.896;9.192;2023-12-28T08:41:20;3.73;;;2.00;;
7933;SDS011;4012;48.896;9.192;2023-12-28T08:43:48;3.57;;;2.00;;
7933;SDS011;4012;48.896;9.192;2023-12-28T08:46:14;2.57;;;2.10;;
7933;SDS011;4012;48.896;9.192;2023-12-28T08:48:41;4.43;;;2.20;;
7933;SDS011;4012;48.896;9.192;2023-12-28T08:51:07;2.70;;;2.07;;
7933;SDS011;4012;48.896;9.192;2023-12-28T08:53:34;5.13;;;1.93;;
7933;SDS011;4012;48.896;9.192;2023-12-28T08:55:59;10.03;;;3.20;;
7933;SDS011;4012;48.896;9.192;2023-12-28T08:58:25;7.17;;;2.37;;
7933;SDS011;4012;48.896;9.192;2023-12-28T09:00:50;3.37;;;1.90;;
7933;SDS011;4012;48.896;9.192;2023-12-28T09:03:16;4.00;;;1.93;;
7933;SDS011;4012;48.896;9.192;2023-12-28T09:05:42;3.67;;;1.90;;
7933;SDS011;4012;48.896;9.192;2023-12-28T09:08:08;3.37;;;2.37;;
7933;SDS011;4012;48.896;9.192;2023-12-28T09:10:33;3.00;;;2.23;;
7933;SDS011;4012;48.896;9.192;2023-12-28T09:12:59;2.57;;;2.00;;
7933;SDS011;4012;48.896;9.192;2023-12-28T09:15:25;4.57;;;2.00;;
7933;SDS011;4012;48.896;9.192;2023-12-28T09:17:50;3.23;;;2.20;;
7933;SDS011;4012;48.896;9.192;2023-12-28T09:20:16;4.27;;;1.90;;
7933;SDS011;4012;48.896;9.192;2023-12-28T09:22:43;3.53;;;2.00;;
7933;SDS011;4012;48.896;9.192;2023-12-28T09:25:09;2.13;;;1.83;;
7933;SDS011;4012;48.896;9.192;2023-12-28T09:27:34;4.17;;;1.97;;
7933;SDS011;4012;48.896;9.192;2023-12-28T09:30:00;5.33;;;2.83;;
7933;SDS011;4012;48.896;9.192;2023-12-28T09:32:25;5.20;;;2.30;;
7933;SDS011;4012;48.896;9.192;2023-12-28T09:34:51;4.93;;;2.00;;
7933;SDS011;4012;48.896;9.192;2023-12-28T09:37:16;4.77;;;2.50;;
7933;SDS011;4012;48.896;9.192;2023-12-28T09:39:42;4.93;;;2.53;;
7933;SDS011;4012;48.896;9.192;2023-12-28T09:42:12;3.47;;;1.80;;
7933;SDS011;4012;48.896;9.192;2023-12-28T09:44:50;4.30;;;2.07;;
7933;SDS011;4012;48.896;9.192;2023-12-28T09:47:19;3.13;;;2.30;;
7933;SDS011;4012;48.896;9.192;2023-12-28T09:49:45;3.90;;;2.20;;
7933;SDS011;4012;48.896;9.192;2023-12-28T09:52:12;4.53;;;3.43;;
7933;SDS011;4012;48.896;9.192;2023-12-28T09:54:37;6.40;;;3.50;;
7933;SDS011;4012;48.896;9.192;2023-12-28T09:57:15;5.30;;;4.07;;
7933;SDS011;4012;48.896;9.192;2023-12-28T09:59:41;8.13;;;4.30;;
7933;SDS011;4012;48.896;9.192;2023-12-28T10:02:10;9.30;;;3.70;;
7933;SDS011;4012;48.896;9.192;2023-12-28T10:04:36;5.30;;;3.37;;
7933;SDS011;4012;48.896;9.192;2023-12-28T10:07:02;5.23;;;3.13;;
7933;SDS011;4012;48.896;9.192;2023-12-28T10:09:27;7.00;;;3.50;;
7933;SDS011;4012;48.896;9.192;2023-12-28T10:11:54;4.83;;;3.33;;
7933;SDS011;4012;48.896;9.192;2023-12-28T10:14:20;6.50;;;3.37;;
7933;SDS011;4012;48.896;9.192;2023-12-28T10:16:46;3.80;;;2.57;;
7933;SDS011;4012;48.896;9.192;2023-12-28T10:19:13;2.60;;;2.40;;
7933;SDS011;4012;48.896;9.192;2023-12-28T10:21:42;3.00;;;2.30;;
7933;SDS011;4012;48.896;9.192;2023-12-28T10:24:09;5.97;;;2.40;;
7933;SDS011;4012;48.896;9.192;2023-12-28T10:26:35;5.30;;;2.77;;
7933;SDS011;4012;48.896;9.192;2023-12-28T10:29:08;5.47;;;3.10;;
7933;SDS011;4012;48.896;9.192;2023-12-28T10:31:34;4.67;;;2.80;;
7933;SDS011;4012;48.896;9.192;2023-12-28T10:34:04;3.40;;;2.57;;
7933;SDS011;4012;48.896;9.192;2023-12-28T10:36:29;5.30;;;3.10;;
7933;SDS011;4012;48.896;9.192;2023-12-28T10:38:57;4.63;;;2.90;;
7933;SDS011;4012;48.896;9.192;2023-12-28T10:41:23;5.57;;;3.20;;
7933;SDS011;4012;48.896;9.192;2023-12-28T10:44:03;4.33;;;3.50;;
7933;SDS011;4012;48.896;9.192;2023-12-28T10:46:31;4.40;;;3.30;;
7933;SDS011;4012;48.896;9.192;2023-12-28T10:48:58;5.63;;;3.63;;
7933;SDS011;4012;48.896;9.192;2023-12-28T10:51:25;4.80;;;3.33;;
7933;SDS011;4012;48.896;9.192;2023-12-28T10:53:58;7.23;;;3.13;;
7933;SDS011;4012;48.896;9.192;2023-12-28T10:56:41;5.50;;;3.20;;
7933;SDS011;4012;48.896;9.192;2023-12-28T10:59:24;4.17;;;3.20;;
7933;SDS011;4012;48.896;9.192;2023-12-28T11:02:22;6.53;;;3.73;;
7933;SDS011;4012;48.896;9.192;2023-12-28T11:04:53;4.03;;;3.20;;
7933;SDS011;4012;48.896;9.192;2023-12-28T11:07:20;6.03;;;4.00;;
7933;SDS011;4012;48.896;9.192;2023-12-28T11:09:46;6.53;;;4.00;;
7933;SDS011;4012;48.896;9.192;2023-12-28T11:12:13;6.97;;;3.77;;
7933;SDS011;4012;48.896;9.192;2023-12-28T11:14:43;6.50;;;4.40;;
7933;SDS011;4012;48.896;9.192;2023-12-28T11:17:09;5.03;;;2.97;;
7933;SDS011;4012;48.896;9.192;2023-12-28T11:19:36;6.67;;;3.23;;
7933;SDS011;4012;48.896;9.192;2023-12-28T11:22:03;5.53;;;2.83;;
7933;SDS011;4012;48.896;9.192;2023-12-28T11:24:29;5.10;;;2.40;;
7933;SDS011;4012;48.896;9.192;2023-12-28T11:26:56;3.13;;;2.50;;
7933;SDS011;4012;48.896;9.192;2023-12-28T11:29:22;2.90;;;2.17;;
7933;SDS011;4012;48.896;9.192;2023-12-28T11:31:52;5.57;;;2.50;;
7933;SDS011;4012;48.896;9.192;2023-12-28T11:34:26;4.90;;;3.40;;
7933;SDS011;4012;48.896;9.192;2023-12-28T11:36:54;5.10;;;2.17;;
7933;SDS011;4012;48.896;9.192;2023-12-28T11:39:34;3.10;;;1.93;;
7933;SDS011;4012;48.896;9.192;2023-12-28T11:42:05;2.50;;;1.60;;
7933;SDS011;4012;48.896;9.192;2023-12-28T11:44:42;1.80;;;1.60;;
7933;SDS011;4012;48.896;9.192;2023-12-28T11:47:12;4.10;;;3.03;;
7933;SDS011;4012;48.896;9.192;2023-12-28T11:49:45;3.70;;;2.83;;
7933;SDS011;4012;48.896;9.192;2023-12-28T11:52:21;2.87;;;2.20;;
7933;SDS011;4012;48.896;9.192;2023-12-28T11:54:51;2.33;;;2.03;;
7933;SDS011;4012;48.896;9.192;2023-12-28T11:57:17;3.40;;;1.80;;
7933;SDS011;4012;48.896;9.192;2023-12-28T11:59:42;6.90;;;2.13;;
7933;SDS011;4012;48.896;9.192;2023-12-28T12:02:08;2.40;;;2.20;;
7933;SDS011;4012;48.896;9.192;2023-12-28T12:04:34;5.30;;;3.20;;
7933;SDS011;4012;48.896;9.192;2023-12-28T12:07:04;6.70;;;3.57;;
7933;SDS011;4012;48.896;9.192;2023-12-28T12:09:30;4.60;;;2.40;;
7933;SDS011;4012;48.896;9.192;2023-12-28T12:12:02;4.20;;;3.17;;
7933;SDS011;4012;48.896;9.192;2023-12-28T12:14:29;2.67;;;1.97;;
7933;SDS011;4012;48.896;9.192;2023-12-28T12:16:55;3.63;;;2.20;;
7933;SDS011;4012;48.896;9.192;2023-12-28T12:19:25;3.07;;;2.40;;
7933;SDS011;4012;48.896;9.192;2023-12-28T12:21:51;3.20;;;2.13;;
7933;SDS011;4012;48.896;9.192;2023-12-28T12:24:18;2.77;;;1.93;;
7933;SDS011;4012;48.896;9.192;2023-12-28T12:26:45;3.93;;;2.93;;
7933;SDS011;4012;48.896;9.192;2023-12-28T12:29:11;2.97;;;2.13;;
7933;SDS011;4012;48.896;9.192;2023-12-28T12:31:36;2.40;;;2.07;;
7933;SDS011;4012;48.896;9.192;2023-12-28T12:34:05;3.20;;;1.97;;
7933;SDS011;4012;48.896;9.192;2023-12-28T12:36:31;1.70;;;1.53;;
7933;SDS011;4012;48.896;9.192;2023-12-28T12:38:56;5.30;;;3.30;;
7933;SDS011;4012;48.896;9.192;2023-12-28T12:41:22;17.03;;;3.80;;
7933;SDS011;4012;48.896;9.192;2023-12-28T12:43:48;4.60;;;3.73;;
7933;SDS011;4012;48.896;9.192;2023-12-28T12:46:13;5.67;;;4.00;;
7933;SDS011;4012;48.896;9.192;2023-12-28T12:48:39;4.80;;;3.90;;
7933;SDS011;4012;48.896;9.192;2023-12-28T12:51:08;6.47;;;5.17;;
7933;SDS011;4012;48.896;9.192;2023-12-28T12:53:34;6.70;;;3.63;;
7933;SDS011;4012;48.896;9.192;2023-12-28T12:56:00;6.87;;;4.40;;
7933;SDS011;4012;48.896;9.192;2023-12-28T12:58:27;6.70;;;4.43;;
7933;SDS011;4012;48.896;9.192;2023-12-28T13:00:55;11.50;;;7.20;;
7933;SDS011;4012;48.896;9.192;2023-12-28T13:03:21;5.73;;;4.60;;
7933;SDS011;4012;48.896;9.192;2023-12-28T13:05:47;6.63;;;4.10;;
7933;SDS011;4012;48.896;9.192;2023-12-28T13:08:13;10.23;;;4.77;;
7933;SDS011;4012;48.896;9.192;2023-12-28T13:10:39;7.93;;;5.23;;
7933;SDS011;4012;48.896;9.192;2023-12-28T13:13:08;6.07;;;4.73;;
7933;SDS011;4012;48.896;9.192;2023-12-28T13:15:33;9.50;;;5.13;;
7933;SDS011;4012;48.896;9.192;2023-12-28T13:17:59;7.63;;;4.77;;
7933;SDS011;4012;48.896;9.192;2023-12-28T13:20:25;6.90;;;4.80;;
7933;SDS011;4012;48.896;9.192;2023-12-28T13:22:50;7.83;;;4.57;;
7933;SDS011;4012;48.896;9.192;2023-12-28T13:25:16;5.97;;;3.43;;
7933;SDS011;4012;48.896;9.192;2023-12-28T13:27:41;8.27;;;4.40;;
7933;SDS011;4012;48.896;9.192;2023-12-28T13:30:07;6.77;;;4.40;;
7933;SDS011;4012;48.896;9.192;2023-12-28T13:32:33;5.50;;;4.50;;
7933;SDS011;4012;48.896;9.192;2023-12-28T13:34:59;6.27;;;3.27;;
7933;SDS011;4012;48.896;9.192;2023-12-28T13:37:24;4.50;;;3.13;;
7933;SDS011;4012;48.896;9.192;2023-12-28T13:39:50;3.83;;;2.73;;
7933;SDS011;4012;48.896;9.192;2023-12-28T13:42:16;3.00;;;2.30;;
7933;SDS011;4012;48.896;9.192;2023-12-28T13:44:41;3.40;;;2.83;;
7933;SDS011;4012;48.896;9.192;2023-12-28T13:47:08;4.17;;;2.80;;
7933;SDS011;4012;48.896;9.192;2023-12-28T13:49:34;4.73;;;3.93;;
7933;SDS011;4012;48.896;9.192;2023-12-28T13:51:59;3.57;;;2.70;;
7933;SDS011;4012;48.896;9.192;2023-12-28T13:54:25;3.60;;;2.90;;
7933;SDS011;4012;48.896;9.192;2023-12-28T13:56:50;4.40;;;2.70;;
7933;SDS011;4012;48.896;9.192;2023-12-28T13:59:22;3.43;;;2.40;;
7933;SDS011;4012;48.896;9.192;2023-12-28T14:01:48;3.37;;;2.90;;
7933;SDS011;4012;48.896;9.192;2023-12-28T14:04:13;4.20;;;3.00;;
7933;SDS011;4012;48.896;9.192;2023-12-28T14:06:39;5.93;;;4.57;;
7933;SDS011;4012;48.896;9.192;2023-12-28T14:09:05;4.97;;;4.00;;
7933;SDS011;4012;48.896;9.192;2023-12-28T14:11:31;4.73;;;3.60;;
7933;SDS011;4012;48.896;9.192;2023-12-28T14:13:56;5.63;;;3.73;;
7933;SDS011;4012;48.896;9.192;2023-12-28T14:16:22;4.10;;;3.43;;
7933;SDS011;4012;48.896;9.192;2023-12-28T14:18:48;4.63;;;3.13;;
7933;SDS011;4012;48.896;9.192;2023-12-28T14:21:14;3.37;;;2.63;;
7933;SDS011;4012;48.896;9.192;2023-12-28T14:23:40;3.30;;;3.00;;
7933;SDS011;4012;48.896;9.192;2023-12-28T14:26:11;4.70;;;3.03;;
7933;SDS011;4012;48.896;9.192;2023-12-28T14:28:41;5.87;;;3.57;;
7933;SDS011;4012;48.896;9.192;2023-12-28T14:31:10;4.57;;;3.27;;
7933;SDS011;4012;48.896;9.192;2023-12-28T14:33:37;4.37;;;3.03;;
7933;SDS011;4012;48.896;9.192;2023-12-28T14:36:05;5.13;;;3.50;;
7933;SDS011;4012;48.896;9.192;2023-12-28T14:38:49;5.23;;;2.93;;
7933;SDS011;4012;48.896;9.192;2023-12-28T14:41:15;4.10;;;2.70;;
7933;SDS011;4012;48.896;9.192;2023-12-28T14:43:40;4.43;;;3.10;;
7933;SDS011;4012;48.896;9.192;2023-12-28T14:46:06;6.80;;;4.07;;
7933;SDS011;4012;48.896;9.192;2023-12-28T14:48:32;4.53;;;2.97;;
7933;SDS011;4012;48.896;9.192;2023-12-28T14:50:57;3.77;;;3.23;;
7933;SDS011;4012;48.896;9.192;2023-12-28T14:53:23;4.57;;;2.80;;
7933;SDS011;4012;48.896;9.192;2023-12-28T14:55:50;5.50;;;3.50;;
7933;SDS011;4012;48.896;9.192;2023-12-28T14:58:16;4.43;;;2.60;;
7933;SDS011;4012;48.896;9.192;2023-12-28T15:00:44;3.20;;;2.10;;
7933;SDS011;4012;48.896;9.192;2023-12-28T15:03:10;5.43;;;2.67;;
7933;SDS011;4012;48.896;9.192;2023-12-28T15:05:36;3.57;;;2.33;;
7933;SDS011;4012;48.896;9.192;2023-12-28T15:08:02;4.10;;;3.27;;
7933;SDS011;4012;48.896;9.192;2023-12-28T15:10:27;5.13;;;2.63;;
7933;SDS011;4012;48.896;9.192;2023-12-28T15:12:53;3.27;;;2.47;;
7933;SDS011;4012;48.896;9.192;2023-12-28T15:15:19;5.13;;;2.37;;
7933;SDS011;4012;48.896;9.192;2023-12-28T15:17:45;3.27;;;2.33;;